METAR Data
IDs: Format: Raw Decoded Include TAF

Data at: 2342 UTC 30 Jun 2022

METAR for:KUDG (Darlington Cnty, SC, US)
Text:KUDG 302256Z AUTO 16004KT 10SM FEW100 27/22 A3016 RMK AO2 SLP211 T02720222
Temperature: 27.2°C ( 81°F)
Dewpoint: 22.2°C ( 72°F) [RH = 74%]
Pressure (altimeter):30.16 inches Hg (1021.4 mb) [Sea level pressure: 1021.1 mb]
Winds:from the SSE (160 degrees) at 5 MPH (4 knots; 2.1 m/s)
Visibility:10 or more sm (16+ km)
Ceiling:at least 12,000 feet AGL
Clouds: few clouds at 10000 feet AGL
QC Flag:automated observation with no human augmentation

TAF for:KUDG (Darlington Cnty, SC, US)
Text:No data found